createdAt,value
2022-10-06T00:01:18.489Z,98254.00
2022-10-06T00:03:48.122Z,98242.00
2022-10-06T00:06:18.252Z,98263.00
2022-10-06T00:08:48.105Z,98249.00
2022-10-06T00:11:17.988Z,98263.00
2022-10-06T00:13:46.467Z,98245.00
2022-10-06T00:16:18.544Z,98257.00
2022-10-06T00:18:48.179Z,98258.00
2022-10-06T00:21:16.681Z,98258.00
2022-10-06T00:23:44.909Z,98259.00
2022-10-06T00:26:16.532Z,98251.00
2022-10-06T00:28:45.204Z,98255.00
2022-10-06T00:31:13.506Z,98253.00
2022-10-06T00:33:41.804Z,98273.00
2022-10-06T00:36:11.337Z,98260.00
2022-10-06T00:38:39.456Z,98278.00
2022-10-06T00:41:14.431Z,98257.00
2022-10-06T00:43:50.831Z,98275.00
2022-10-06T00:46:31.364Z,98268.00
2022-10-06T00:49:08.654Z,98285.00
2022-10-06T00:51:43.664Z,98280.00
2022-10-06T00:54:13.466Z,98291.00
2022-10-06T00:56:42.329Z,98288.00
2022-10-06T00:59:13.709Z,98290.00
2022-10-06T01:01:48.804Z,98284.00
2022-10-06T01:04:18.476Z,98286.00
2022-10-06T01:06:53.401Z,98291.00
2022-10-06T01:09:24.408Z,98297.00
2022-10-06T01:11:56.948Z,98288.00
2022-10-06T01:14:26.449Z,98302.00
2022-10-06T01:17:02.646Z,98305.00
2022-10-06T01:19:48.429Z,98305.00
2022-10-06T01:22:27.340Z,98302.00
2022-10-06T01:24:56.247Z,98297.00
2022-10-06T01:27:28.522Z,98302.00
2022-10-06T01:29:58.796Z,98300.00
2022-10-06T01:32:34.063Z,98298.00
2022-10-06T01:35:02.215Z,98296.00
2022-10-06T01:37:31.939Z,98300.00
2022-10-06T01:40:00.165Z,98294.00
2022-10-06T01:42:31.712Z,98305.00
2022-10-06T01:45:00.703Z,98298.00
2022-10-06T01:47:29.026Z,98319.00
2022-10-06T01:49:57.773Z,98310.00
2022-10-06T01:52:26.130Z,98310.00
2022-10-06T01:54:55.658Z,98306.00
2022-10-06T01:57:24.359Z,98305.00
2022-10-06T01:59:54.905Z,98313.00
2022-10-06T02:02:24.730Z,98311.00
2022-10-06T02:04:53.470Z,98312.00
2022-10-06T02:07:21.616Z,98318.00
2022-10-06T02:09:49.844Z,98314.00
2022-10-06T02:12:19.914Z,98323.00
2022-10-06T02:14:48.020Z,98326.00
2022-10-06T02:17:16.405Z,98326.00
2022-10-06T02:19:44.941Z,98319.00
2022-10-06T02:22:13.268Z,98335.00
2022-10-06T02:24:41.451Z,98328.00
2022-10-06T02:27:09.648Z,98335.00
2022-10-06T02:29:39.558Z,98340.00
2022-10-06T02:32:08.699Z,98335.00
2022-10-06T02:34:36.789Z,98335.00
2022-10-06T02:37:05.389Z,98338.00
2022-10-06T02:39:33.672Z,98340.00
2022-10-06T02:42:01.745Z,98351.00
2022-10-06T02:44:29.854Z,98349.00
2022-10-06T02:46:59.459Z,98345.00
2022-10-06T02:49:28.402Z,98365.00
2022-10-06T02:51:56.473Z,98354.00
2022-10-06T02:54:24.626Z,98356.00
2022-10-06T02:56:52.752Z,98365.00
2022-10-06T02:59:21.001Z,98358.00
2022-10-06T03:01:49.243Z,98360.00
2022-10-06T03:04:20.662Z,98365.00
2022-10-06T03:06:50.777Z,98349.00
2022-10-06T03:09:27.191Z,98335.00
2022-10-06T03:11:56.644Z,98352.00
2022-10-06T03:14:45.371Z,98349.00
2022-10-06T03:17:13.507Z,98358.00
2022-10-06T03:19:49.612Z,98363.00
2022-10-06T03:22:17.965Z,98368.00
2022-10-06T03:24:54.909Z,98374.00
2022-10-06T03:27:23.392Z,98379.00
2022-10-06T03:29:54.496Z,98373.00
2022-10-06T03:32:25.167Z,98378.00
2022-10-06T03:34:54.747Z,98387.00
2022-10-06T03:37:23.049Z,98384.00
2022-10-06T03:39:51.824Z,98396.00
2022-10-06T03:42:20.640Z,98400.00
2022-10-06T03:44:49.374Z,98406.00
2022-10-06T03:47:19.092Z,98407.00
2022-10-06T03:49:47.892Z,98410.00
2022-10-06T03:52:23.592Z,98404.00
2022-10-06T03:54:54.073Z,98423.00
2022-10-06T03:57:22.569Z,98415.00
2022-10-06T03:59:51.603Z,98426.00
2022-10-06T04:02:19.771Z,98432.00
2022-10-06T04:04:48.044Z,98433.00
2022-10-06T04:07:16.193Z,98429.00
2022-10-06T04:09:46.018Z,98441.00
2022-10-06T04:12:14.575Z,98445.00
2022-10-06T04:14:44.346Z,98454.00
2022-10-06T04:17:13.000Z,98453.00
2022-10-06T04:19:42.660Z,98458.00
2022-10-06T04:22:10.787Z,98449.00
2022-10-06T04:24:38.889Z,98457.00
2022-10-06T04:27:31.456Z,98459.00
2022-10-06T04:30:04.507Z,98461.00
2022-10-06T04:32:33.537Z,98460.00
2022-10-06T04:35:02.008Z,98451.00
2022-10-06T04:37:30.555Z,98461.00
2022-10-06T04:39:59.330Z,98454.00
2022-10-06T04:42:34.079Z,98473.00
2022-10-06T04:45:03.690Z,98459.00
2022-10-06T04:47:32.012Z,98465.00
2022-10-06T04:50:00.197Z,98470.00
2022-10-06T04:52:28.265Z,98479.00
2022-10-06T04:54:56.928Z,98470.00
2022-10-06T04:57:25.344Z,98468.00
2022-10-06T05:00:15.103Z,98481.00
2022-10-06T05:02:45.908Z,98486.00
2022-10-06T05:05:14.207Z,98486.00
2022-10-06T05:07:45.607Z,98490.00
2022-10-06T05:10:14.529Z,98495.00
2022-10-06T05:12:43.035Z,98501.00
2022-10-06T05:15:12.840Z,98500.00
2022-10-06T05:17:41.180Z,98502.00
2022-10-06T05:20:12.045Z,98503.00
2022-10-06T05:22:40.299Z,98509.00
2022-10-06T05:25:09.531Z,98522.00
2022-10-06T05:27:37.597Z,98524.00
2022-10-06T05:30:06.391Z,98525.00
2022-10-06T05:32:36.315Z,98525.00
2022-10-06T05:35:06.432Z,98530.00
2022-10-06T05:37:34.529Z,98539.00
2022-10-06T05:40:03.109Z,98538.00
2022-10-06T05:42:31.293Z,98556.00
2022-10-06T05:45:00.703Z,98544.00
2022-10-06T05:47:28.900Z,98556.00
2022-10-06T05:49:58.655Z,98570.00
2022-10-06T05:52:26.826Z,98566.00
2022-10-06T05:54:54.941Z,98568.00
2022-10-06T05:57:23.078Z,98571.00
2022-10-06T05:59:51.142Z,98583.00
2022-10-06T06:02:19.315Z,98583.00
2022-10-06T06:04:48.081Z,98585.00
2022-10-06T06:07:17.559Z,98576.00
2022-10-06T06:09:47.485Z,98586.00
2022-10-06T06:12:16.488Z,98599.00
2022-10-06T06:15:07.017Z,98602.00
2022-10-06T06:17:42.937Z,98596.00
2022-10-06T06:20:11.510Z,98612.00
2022-10-06T06:22:41.165Z,98614.00
2022-10-06T06:25:10.494Z,98615.00
2022-10-06T06:27:39.104Z,98611.00
2022-10-06T06:30:12.814Z,98612.00
2022-10-06T06:32:41.541Z,98613.00
2022-10-06T06:35:11.490Z,98612.00
2022-10-06T06:37:41.057Z,98623.00
2022-10-06T06:40:10.284Z,98619.00
2022-10-06T06:42:40.451Z,98625.00
2022-10-06T06:45:27.375Z,98642.00
2022-10-06T06:48:03.369Z,98645.00
2022-10-06T06:50:33.612Z,98642.00
2022-10-06T06:53:03.379Z,98660.00
2022-10-06T06:55:34.435Z,98651.00
2022-10-06T06:58:02.660Z,98660.00
2022-10-06T07:00:35.934Z,98658.00
2022-10-06T07:03:06.062Z,98668.00
2022-10-06T07:05:35.091Z,98669.00
2022-10-06T07:08:04.945Z,98672.00
2022-10-06T07:10:36.168Z,98682.00
2022-10-06T07:13:06.706Z,98685.00
2022-10-06T07:15:52.597Z,98690.00
2022-10-06T07:18:38.623Z,98685.00
2022-10-06T07:21:28.850Z,98695.00
2022-10-06T07:24:17.929Z,98686.00
2022-10-06T07:26:46.124Z,98708.00
2022-10-06T07:29:14.253Z,98710.00
2022-10-06T07:31:43.516Z,98714.00
2022-10-06T07:34:11.748Z,98722.00
2022-10-06T07:36:40.028Z,98720.00
2022-10-06T07:39:10.394Z,98723.00
2022-10-06T07:41:38.956Z,98729.00
2022-10-06T07:44:08.213Z,98735.00
2022-10-06T07:46:37.986Z,98737.00
2022-10-06T07:49:11.768Z,98735.00
2022-10-06T07:51:41.099Z,98739.00
2022-10-06T07:54:11.299Z,98752.00
2022-10-06T07:56:47.072Z,98749.00
2022-10-06T07:59:15.200Z,98763.00
2022-10-06T08:01:44.534Z,98756.00
2022-10-06T08:04:13.738Z,98761.00
2022-10-06T08:06:42.929Z,98755.00
2022-10-06T08:09:12.337Z,98780.00
2022-10-06T08:11:40.446Z,98781.00
2022-10-06T08:14:08.599Z,98785.00
2022-10-06T08:16:36.779Z,98795.00
2022-10-06T08:19:04.999Z,98780.00
2022-10-06T08:21:35.311Z,98792.00
2022-10-06T08:24:04.019Z,98801.00
2022-10-06T08:26:34.389Z,98805.00
2022-10-06T08:29:03.742Z,98796.00
2022-10-06T08:31:32.886Z,98807.00
2022-10-06T08:34:01.359Z,98807.00
2022-10-06T08:36:32.324Z,98812.00
2022-10-06T08:39:01.207Z,98813.00
2022-10-06T08:41:40.039Z,98826.00
2022-10-06T08:44:23.135Z,98812.00
2022-10-06T08:47:00.405Z,98832.00
2022-10-06T08:49:36.520Z,98830.00
2022-10-06T08:52:20.025Z,98851.00
2022-10-06T08:54:58.834Z,98846.00
2022-10-06T08:57:39.689Z,98851.00
2022-10-06T09:00:15.743Z,98842.00
2022-10-06T09:02:49.407Z,98856.00
2022-10-06T09:05:25.408Z,98850.00
2022-10-06T09:08:17.383Z,98850.00
2022-10-06T09:11:03.484Z,98842.00
2022-10-06T09:13:42.587Z,98852.00
2022-10-06T09:16:16.649Z,98859.00
2022-10-06T09:19:07.647Z,98846.00
2022-10-06T09:21:42.731Z,98861.00
2022-10-06T09:24:16.751Z,98852.00
2022-10-06T09:26:47.965Z,98860.00
2022-10-06T09:29:18.523Z,98869.00
2022-10-06T09:31:51.175Z,98864.00
2022-10-06T09:34:31.595Z,98864.00
2022-10-06T09:37:03.643Z,98874.00
2022-10-06T09:39:36.654Z,98867.00
2022-10-06T09:42:13.412Z,98858.00
2022-10-06T09:44:57.242Z,98872.00
2022-10-06T09:47:40.031Z,98882.00
2022-10-06T09:50:21.789Z,98870.00
2022-10-06T09:53:21.547Z,98863.00
2022-10-06T09:55:54.804Z,98863.00
2022-10-06T09:58:32.604Z,98877.00
2022-10-06T10:01:04.454Z,98870.00
2022-10-06T10:04:08.365Z,98860.00
2022-10-06T10:06:38.420Z,98888.00
2022-10-06T10:09:30.666Z,98880.00
2022-10-06T10:12:31.254Z,98875.00
2022-10-06T10:15:04.511Z,98876.00
2022-10-06T10:17:50.103Z,98870.00
2022-10-06T10:20:37.796Z,98867.00
2022-10-06T10:23:27.296Z,98871.00
2022-10-06T10:26:17.843Z,98872.00
2022-10-06T10:29:53.109Z,98873.00
2022-10-06T10:32:31.195Z,98869.00
2022-10-06T10:35:13.350Z,98874.00
2022-10-06T10:37:47.990Z,98876.00
2022-10-06T10:40:33.847Z,98872.00
2022-10-06T10:43:23.255Z,98883.00
2022-10-06T10:45:59.613Z,98871.00
2022-10-06T10:48:34.784Z,98880.00
2022-10-06T10:51:11.345Z,98878.00
2022-10-06T10:53:50.787Z,98867.00
2022-10-06T10:56:24.568Z,98878.00
2022-10-06T10:59:01.891Z,98887.00
2022-10-06T11:01:39.518Z,98876.00
2022-10-06T11:04:13.245Z,98872.00
2022-10-06T11:07:02.492Z,98872.00
2022-10-06T11:09:39.315Z,98881.00
2022-10-06T11:12:28.061Z,98864.00
2022-10-06T11:15:01.559Z,98865.00
2022-10-06T11:17:47.070Z,98861.00
2022-10-06T11:20:45.877Z,98877.00
2022-10-06T11:23:38.949Z,98870.00
2022-10-06T11:26:24.562Z,98865.00
2022-10-06T11:29:05.749Z,98878.00
2022-10-06T11:31:43.696Z,98861.00
2022-10-06T11:34:12.991Z,98872.00
2022-10-06T11:36:53.476Z,98866.00
2022-10-06T11:39:31.375Z,98869.00
2022-10-06T11:42:09.386Z,98872.00
2022-10-06T11:44:44.593Z,98876.00
2022-10-06T11:47:28.149Z,98870.00
2022-10-06T11:50:02.849Z,98863.00
2022-10-06T11:52:47.984Z,98862.00
2022-10-06T11:55:23.792Z,98864.00
2022-10-06T11:58:40.943Z,98858.00
2022-10-06T12:01:05.279Z,98867.00
2022-10-06T12:03:48.003Z,98849.00
2022-10-06T12:07:00.333Z,98858.00
2022-10-06T12:09:53.297Z,98857.00
2022-10-06T12:13:31.891Z,98843.00
2022-10-06T12:19:23.389Z,98833.00
2022-10-06T12:22:01.869Z,98846.00
2022-10-06T12:24:44.768Z,98831.00
2022-10-06T12:27:40.622Z,98850.00
2022-10-06T12:30:23.486Z,98838.00
2022-10-06T12:32:55.313Z,98826.00
2022-10-06T12:35:32.352Z,98830.00
2022-10-06T12:38:04.766Z,98829.00
2022-10-06T12:40:52.379Z,98826.00
2022-10-06T12:43:55.916Z,98832.00
2022-10-06T12:46:44.911Z,98832.00
2022-10-06T12:49:56.607Z,98826.00
2022-10-06T12:52:49.688Z,98826.00
2022-10-06T12:55:49.111Z,98826.00
2022-10-06T12:58:19.015Z,98824.00
2022-10-06T13:00:48.557Z,98835.00
2022-10-06T13:03:24.262Z,98836.00
2022-10-06T13:05:56.101Z,98830.00
2022-10-06T13:08:27.902Z,98836.00
2022-10-06T13:11:19.509Z,98826.00
2022-10-06T13:13:49.885Z,98826.00
2022-10-06T13:16:20.458Z,98831.00
2022-10-06T13:18:54.773Z,98820.00
2022-10-06T13:21:23.894Z,98823.00
2022-10-06T13:23:53.135Z,98821.00
2022-10-06T13:26:25.634Z,98836.00
2022-10-06T13:28:55.903Z,98827.00
2022-10-06T13:31:27.102Z,98824.00
2022-10-06T13:34:01.517Z,98826.00
2022-10-06T13:36:32.720Z,98828.00
2022-10-06T13:39:01.677Z,98832.00
2022-10-06T13:41:35.018Z,98827.00
2022-10-06T13:44:16.783Z,98827.00
2022-10-06T13:46:50.407Z,98820.00
2022-10-06T13:49:27.467Z,98826.00
2022-10-06T13:51:59.714Z,98817.00
2022-10-06T13:54:41.101Z,98824.00
2022-10-06T13:57:43.578Z,98826.00
2022-10-06T14:00:21.631Z,98826.00
2022-10-06T14:02:52.128Z,98833.00
2022-10-06T14:05:26.964Z,98831.00
2022-10-06T14:07:59.540Z,98829.00
2022-10-06T14:10:33.468Z,98827.00
2022-10-06T14:13:02.903Z,98823.00
2022-10-06T14:15:39.779Z,98824.00
2022-10-06T14:18:07.981Z,98815.00
2022-10-06T14:20:46.870Z,98824.00
2022-10-06T14:23:43.543Z,98826.00
2022-10-06T14:26:16.826Z,98819.00
2022-10-06T14:28:51.460Z,98822.00
2022-10-06T14:31:20.328Z,98826.00
2022-10-06T14:33:51.374Z,98819.00
2022-10-06T14:36:24.438Z,98826.00
2022-10-06T14:38:53.330Z,98831.00
2022-10-06T14:41:24.885Z,98815.00
2022-10-06T14:43:57.529Z,98826.00
2022-10-06T14:46:26.780Z,98830.00
2022-10-06T14:48:55.707Z,98830.00
2022-10-06T14:51:27.252Z,98819.00
2022-10-06T14:53:57.701Z,98825.00
2022-10-06T14:56:31.511Z,98821.00
2022-10-06T14:59:02.227Z,98822.00
2022-10-06T15:01:31.293Z,98811.00
2022-10-06T15:04:01.798Z,98813.00
2022-10-06T15:06:49.057Z,98811.00
2022-10-06T15:09:17.196Z,98816.00
2022-10-06T15:11:45.375Z,98817.00
2022-10-06T15:14:13.567Z,98809.00
2022-10-06T15:16:42.093Z,98809.00
2022-10-06T15:19:11.494Z,98809.00
2022-10-06T15:21:44.962Z,98810.00
2022-10-06T15:24:16.450Z,98807.00
2022-10-06T15:27:03.124Z,98801.00
2022-10-06T15:29:31.892Z,98813.00
2022-10-06T15:32:00.247Z,98806.00
2022-10-06T15:34:31.613Z,98810.00
2022-10-06T15:37:02.393Z,98802.00
2022-10-06T15:39:32.878Z,98808.00
2022-10-06T15:42:01.070Z,98807.00
2022-10-06T15:44:34.468Z,98806.00
2022-10-06T15:47:04.861Z,98820.00
2022-10-06T15:49:38.068Z,98806.00
2022-10-06T15:52:08.532Z,98812.00
2022-10-06T15:54:39.451Z,98820.00
2022-10-06T15:57:15.196Z,98812.00
2022-10-06T15:59:46.189Z,98811.00
2022-10-06T16:02:17.125Z,98799.00
2022-10-06T16:04:56.533Z,98803.00
2022-10-06T16:07:25.994Z,98799.00
2022-10-06T16:09:54.272Z,98808.00
2022-10-06T16:12:24.814Z,98809.00
2022-10-06T16:14:53.317Z,98805.00
2022-10-06T16:17:21.788Z,98813.00
2022-10-06T16:19:49.985Z,98811.00
2022-10-06T16:22:21.697Z,98815.00
2022-10-06T16:24:51.180Z,98811.00
2022-10-06T16:27:19.267Z,98810.00
2022-10-06T16:29:47.448Z,98812.00
2022-10-06T16:32:15.532Z,98816.00
2022-10-06T16:34:43.661Z,98821.00
2022-10-06T16:37:11.788Z,98825.00
2022-10-06T16:39:39.909Z,98819.00
2022-10-06T16:42:09.840Z,98812.00
2022-10-06T16:44:37.929Z,98818.00
2022-10-06T16:47:06.155Z,98819.00
2022-10-06T16:49:34.339Z,98820.00
2022-10-06T16:52:02.444Z,98809.00
2022-10-06T16:54:30.516Z,98817.00
2022-10-06T16:57:01.529Z,98818.00
2022-10-06T16:59:31.004Z,98824.00
2022-10-06T17:01:59.127Z,98827.00
2022-10-06T17:04:27.330Z,98826.00
2022-10-06T17:06:57.690Z,98829.00
2022-10-06T17:09:28.783Z,98814.00
2022-10-06T17:11:59.724Z,98822.00
2022-10-06T17:14:30.862Z,98826.00
2022-10-06T17:17:00.142Z,98823.00
2022-10-06T17:19:31.764Z,98832.00
2022-10-06T17:22:00.364Z,98834.00
2022-10-06T17:24:31.114Z,98830.00
2022-10-06T17:27:00.399Z,98826.00
2022-10-06T17:29:29.980Z,98832.00
2022-10-06T17:32:00.409Z,98832.00
2022-10-06T17:34:32.676Z,98836.00
2022-10-06T17:37:03.219Z,98841.00
2022-10-06T17:39:31.907Z,98833.00
2022-10-06T17:42:00.135Z,98841.00
2022-10-06T17:44:29.101Z,98842.00
2022-10-06T17:47:01.195Z,98842.00
2022-10-06T17:49:30.417Z,98833.00
2022-10-06T17:51:58.908Z,98838.00
2022-10-06T17:54:28.714Z,98845.00
2022-10-06T17:56:59.206Z,98836.00
2022-10-06T17:59:30.590Z,98833.00
2022-10-06T18:02:03.619Z,98835.00
2022-10-06T18:04:31.986Z,98837.00
2022-10-06T18:07:00.332Z,98832.00
2022-10-06T18:09:29.441Z,98835.00
2022-10-06T18:11:58.487Z,98841.00
2022-10-06T18:14:32.207Z,98827.00
2022-10-06T18:17:04.055Z,98836.00
2022-10-06T18:19:34.806Z,98830.00
2022-10-06T18:22:07.900Z,98841.00
2022-10-06T18:24:35.996Z,98829.00
2022-10-06T18:27:05.956Z,98835.00
2022-10-06T18:29:37.461Z,98836.00
2022-10-06T18:33:06.393Z,98842.00
2022-10-06T18:37:45.416Z,98837.00
2022-10-06T18:40:14.774Z,98832.00
2022-10-06T18:42:43.038Z,98841.00
2022-10-06T18:45:32.242Z,98828.00
2022-10-06T18:48:21.449Z,98848.00
2022-10-06T18:51:01.185Z,98840.00
2022-10-06T18:53:31.029Z,98836.00
2022-10-06T18:55:59.252Z,98845.00
2022-10-06T18:58:27.357Z,98850.00
2022-10-06T19:00:55.886Z,98847.00
2022-10-06T19:03:28.299Z,98849.00
2022-10-06T19:05:56.547Z,98843.00
2022-10-06T19:08:24.723Z,98845.00
2022-10-06T19:11:06.971Z,98844.00
2022-10-06T19:13:35.288Z,98839.00
2022-10-06T19:16:03.387Z,98849.00
2022-10-06T19:18:37.939Z,98836.00
2022-10-06T19:21:09.661Z,98853.00
2022-10-06T19:23:39.984Z,98854.00
2022-10-06T19:26:11.907Z,98851.00
2022-10-06T19:28:40.677Z,98852.00
2022-10-06T19:31:13.325Z,98846.00
2022-10-06T19:33:43.232Z,98852.00
2022-10-06T19:36:11.606Z,98849.00
2022-10-06T19:38:40.494Z,98847.00
2022-10-06T19:41:26.129Z,98848.00
2022-10-06T19:43:54.477Z,98851.00
2022-10-06T19:46:22.595Z,98852.00
2022-10-06T19:48:58.062Z,98847.00
2022-10-06T19:51:26.690Z,98843.00
2022-10-06T19:53:54.823Z,98835.00
2022-10-06T19:56:25.198Z,98844.00
2022-10-06T19:58:53.691Z,98849.00
2022-10-06T20:01:21.884Z,98840.00
2022-10-06T20:03:50.199Z,98849.00
2022-10-06T20:06:20.588Z,98856.00
2022-10-06T20:08:48.864Z,98852.00
2022-10-06T20:11:21.595Z,98857.00
2022-10-06T20:13:50.121Z,98847.00
2022-10-06T20:16:21.072Z,98855.00
2022-10-06T20:18:50.619Z,98853.00
2022-10-06T20:21:24.559Z,98853.00
2022-10-06T20:23:57.972Z,98850.00
2022-10-06T20:26:32.010Z,98840.00
2022-10-06T20:29:01.540Z,98852.00
2022-10-06T20:31:33.051Z,98853.00
2022-10-06T20:34:06.815Z,98837.00
2022-10-06T20:36:38.386Z,98835.00
2022-10-06T20:39:25.881Z,98842.00
2022-10-06T20:41:55.647Z,98836.00
2022-10-06T20:44:24.120Z,98859.00
2022-10-06T20:46:54.290Z,98845.00
2022-10-06T20:49:22.682Z,98838.00
2022-10-06T20:51:52.688Z,98853.00
2022-10-06T20:54:22.990Z,98845.00
2022-10-06T20:56:53.083Z,98841.00
2022-10-06T20:59:23.751Z,98840.00
2022-10-06T21:01:52.526Z,98845.00
2022-10-06T21:04:21.989Z,98846.00
2022-10-06T21:06:51.615Z,98837.00
2022-10-06T21:09:20.715Z,98841.00
2022-10-06T21:11:51.073Z,98837.00
2022-10-06T21:14:19.841Z,98834.00
2022-10-06T21:16:51.414Z,98842.00
2022-10-06T21:19:20.673Z,98837.00
2022-10-06T21:21:53.102Z,98838.00
2022-10-06T21:24:21.702Z,98835.00
2022-10-06T21:26:52.504Z,98831.00
2022-10-06T21:29:21.063Z,98823.00
2022-10-06T21:31:49.258Z,98826.00
2022-10-06T21:34:17.371Z,98830.00
2022-10-06T21:36:45.595Z,98824.00
2022-10-06T21:39:15.038Z,98824.00
2022-10-06T21:41:43.323Z,98833.00
2022-10-06T21:44:14.100Z,98827.00
2022-10-06T21:46:46.807Z,98816.00
2022-10-06T21:49:17.732Z,98825.00
2022-10-06T21:51:48.494Z,98802.00
2022-10-06T21:54:18.435Z,98812.00
2022-10-06T21:56:46.802Z,98818.00
2022-10-06T21:59:15.118Z,98801.00
2022-10-06T22:01:46.118Z,98821.00
2022-10-06T22:04:15.508Z,98802.00
2022-10-06T22:06:45.695Z,98804.00
2022-10-06T22:09:18.611Z,98797.00
2022-10-06T22:11:46.826Z,98798.00
2022-10-06T22:14:18.422Z,98804.00
2022-10-06T22:16:47.092Z,98797.00
2022-10-06T22:19:17.680Z,98798.00
2022-10-06T22:21:48.888Z,98798.00
2022-10-06T22:24:21.127Z,98781.00
2022-10-06T22:26:50.519Z,98792.00
2022-10-06T22:29:20.950Z,98778.00
2022-10-06T22:31:49.775Z,98765.00
2022-10-06T22:34:20.249Z,98791.00
2022-10-06T22:36:48.391Z,98783.00
2022-10-06T22:39:18.568Z,98778.00
2022-10-06T22:41:46.856Z,98776.00
2022-10-06T22:44:15.160Z,98770.00
2022-10-06T22:46:43.328Z,98785.00
2022-10-06T22:49:11.597Z,98772.00
2022-10-06T22:51:39.694Z,98767.00
2022-10-06T22:54:07.816Z,98748.00
2022-10-06T22:56:37.314Z,98745.00
2022-10-06T22:59:05.517Z,98746.00
2022-10-06T23:01:33.701Z,98746.00
2022-10-06T23:04:01.830Z,98752.00
2022-10-06T23:06:31.574Z,98743.00
2022-10-06T23:09:00.382Z,98733.00
2022-10-06T23:11:29.467Z,98732.00
2022-10-06T23:13:58.943Z,98732.00
2022-10-06T23:16:27.080Z,98737.00
2022-10-06T23:18:55.863Z,98733.00
2022-10-06T23:21:27.523Z,98742.00
2022-10-06T23:24:00.167Z,98734.00
2022-10-06T23:26:28.926Z,98723.00
2022-10-06T23:29:01.727Z,98733.00
2022-10-06T23:31:30.532Z,98724.00
2022-10-06T23:33:59.282Z,98712.00
2022-10-06T23:36:27.339Z,98730.00
2022-10-06T23:38:55.758Z,98737.00
2022-10-06T23:41:23.842Z,98738.00
2022-10-06T23:43:52.119Z,98742.00
2022-10-06T23:46:21.632Z,98726.00
2022-10-06T23:48:49.702Z,98718.00
2022-10-06T23:51:18.227Z,98726.00
2022-10-06T23:53:47.063Z,98718.00
2022-10-06T23:56:15.304Z,98718.00
2022-10-06T23:58:43.495Z,98722.00
